sensor_id;sensor_type;location;lat;lon;timestamp;P1;durP1;ratioP1;P2;durP2;ratioP2
65831;SDS011;52593;42.648;23.332;2024-01-15T00:01:12;19.30;;;6.87;;
65831;SDS011;52593;42.648;23.332;2024-01-15T00:03:37;19.65;;;7.72;;
65831;SDS011;52593;42.648;23.332;2024-01-15T00:06:03;20.93;;;7.57;;
65831;SDS011;52593;42.648;23.332;2024-01-15T00:08:29;19.60;;;6.78;;
65831;SDS011;52593;42.648;23.332;2024-01-15T00:10:54;20.33;;;6.07;;
65831;SDS011;52593;42.648;23.332;2024-01-15T00:13:20;22.93;;;6.87;;
65831;SDS011;52593;42.648;23.332;2024-01-15T00:15:45;17.83;;;6.75;;
65831;SDS011;52593;42.648;23.332;2024-01-15T00:18:10;24.90;;;7.97;;
65831;SDS011;52593;42.648;23.332;2024-01-15T00:20:36;21.33;;;8.03;;
65831;SDS011;52593;42.648;23.332;2024-01-15T00:23:01;19.80;;;7.10;;
65831;SDS011;52593;42.648;23.332;2024-01-15T00:25:27;26.23;;;7.35;;
65831;SDS011;52593;42.648;23.332;2024-01-15T00:27:52;27.70;;;8.50;;
65831;SDS011;52593;42.648;23.332;2024-01-15T00:30:18;18.33;;;6.37;;
65831;SDS011;52593;42.648;23.332;2024-01-15T00:32:43;24.10;;;7.13;;
65831;SDS011;52593;42.648;23.332;2024-01-15T00:35:09;20.83;;;7.60;;
65831;SDS011;52593;42.648;23.332;2024-01-15T00:37:35;19.00;;;6.83;;
65831;SDS011;52593;42.648;23.332;2024-01-15T00:40:00;18.33;;;6.27;;
65831;SDS011;52593;42.648;23.332;2024-01-15T00:42:26;21.98;;;7.45;;
65831;SDS011;52593;42.648;23.332;2024-01-15T00:44:51;22.47;;;7.63;;
65831;SDS011;52593;42.648;23.332;2024-01-15T00:47:18;18.00;;;6.63;;
65831;SDS011;52593;42.648;23.332;2024-01-15T00:49:43;22.17;;;6.72;;
65831;SDS011;52593;42.648;23.332;2024-01-15T00:52:09;22.07;;;7.90;;
65831;SDS011;52593;42.648;23.332;2024-01-15T00:54:34;15.17;;;6.53;;
65831;SDS011;52593;42.648;23.332;2024-01-15T00:57:00;18.80;;;6.67;;
65831;SDS011;52593;42.648;23.332;2024-01-15T00:59:25;22.00;;;7.50;;
65831;SDS011;52593;42.648;23.332;2024-01-15T01:01:51;22.87;;;7.20;;
65831;SDS011;52593;42.648;23.332;2024-01-15T01:04:16;21.05;;;7.40;;
65831;SDS011;52593;42.648;23.332;2024-01-15T01:06:41;16.40;;;7.07;;
65831;SDS011;52593;42.648;23.332;2024-01-15T01:09:07;20.20;;;6.63;;
65831;SDS011;52593;42.648;23.332;2024-01-15T01:11:33;16.43;;;6.03;;
65831;SDS011;52593;42.648;23.332;2024-01-15T01:13:58;17.40;;;6.67;;
65831;SDS011;52593;42.648;23.332;2024-01-15T01:16:24;19.30;;;7.40;;
65831;SDS011;52593;42.648;23.332;2024-01-15T01:18:49;19.07;;;7.27;;
65831;SDS011;52593;42.648;23.332;2024-01-15T01:21:15;20.27;;;6.80;;
65831;SDS011;52593;42.648;23.332;2024-01-15T01:23:40;19.97;;;6.40;;
65831;SDS011;52593;42.648;23.332;2024-01-15T01:26:06;17.92;;;6.68;;
65831;SDS011;52593;42.648;23.332;2024-01-15T01:28:31;21.70;;;6.33;;
65831;SDS011;52593;42.648;23.332;2024-01-15T01:30:57;22.60;;;7.57;;
65831;SDS011;52593;42.648;23.332;2024-01-15T01:33:22;19.70;;;6.60;;
65831;SDS011;52593;42.648;23.332;2024-01-15T01:35:47;18.63;;;7.43;;
65831;SDS011;52593;42.648;23.332;2024-01-15T01:38:13;18.90;;;6.30;;
65831;SDS011;52593;42.648;23.332;2024-01-15T01:40:38;16.07;;;6.50;;
65831;SDS011;52593;42.648;23.332;2024-01-15T01:43:08;21.53;;;7.23;;
65831;SDS011;52593;42.648;23.332;2024-01-15T01:45:34;20.10;;;7.40;;
65831;SDS011;52593;42.648;23.332;2024-01-15T01:48:00;17.17;;;6.97;;
65831;SDS011;52593;42.648;23.332;2024-01-15T01:50:26;20.00;;;6.70;;
65831;SDS011;52593;42.648;23.332;2024-01-15T01:52:52;21.90;;;7.35;;
65831;SDS011;52593;42.648;23.332;2024-01-15T01:55:18;19.40;;;7.77;;
65831;SDS011;52593;42.648;23.332;2024-01-15T01:57:45;25.27;;;7.72;;
65831;SDS011;52593;42.648;23.332;2024-01-15T02:00:11;22.23;;;7.37;;
65831;SDS011;52593;42.648;23.332;2024-01-15T02:02:37;26.83;;;9.20;;
65831;SDS011;52593;42.648;23.332;2024-01-15T02:05:04;24.95;;;8.95;;
65831;SDS011;52593;42.648;23.332;2024-01-15T02:07:30;27.08;;;8.40;;
65831;SDS011;52593;42.648;23.332;2024-01-15T02:09:56;26.23;;;8.27;;
65831;SDS011;52593;42.648;23.332;2024-01-15T02:12:22;20.58;;;7.80;;
65831;SDS011;52593;42.648;23.332;2024-01-15T02:14:47;28.23;;;8.03;;
65831;SDS011;52593;42.648;23.332;2024-01-15T02:17:13;20.37;;;7.93;;
65831;SDS011;52593;42.648;23.332;2024-01-15T02:19:38;20.33;;;7.38;;
65831;SDS011;52593;42.648;23.332;2024-01-15T02:22:05;20.93;;;7.10;;
65831;SDS011;52593;42.648;23.332;2024-01-15T02:24:31;26.00;;;7.63;;
65831;SDS011;52593;42.648;23.332;2024-01-15T02:26:56;21.80;;;7.77;;
65831;SDS011;52593;42.648;23.332;2024-01-15T02:29:22;22.87;;;7.47;;
65831;SDS011;52593;42.648;23.332;2024-01-15T02:31:47;21.70;;;7.15;;
65831;SDS011;52593;42.648;23.332;2024-01-15T02:34:13;25.13;;;7.90;;
65831;SDS011;52593;42.648;23.332;2024-01-15T02:36:38;22.37;;;7.03;;
65831;SDS011;52593;42.648;23.332;2024-01-15T02:39:04;18.80;;;6.00;;
65831;SDS011;52593;42.648;23.332;2024-01-15T02:41:29;24.63;;;7.35;;
65831;SDS011;52593;42.648;23.332;2024-01-15T02:43:55;24.37;;;7.97;;
65831;SDS011;52593;42.648;23.332;2024-01-15T02:46:20;20.60;;;7.73;;
65831;SDS011;52593;42.648;23.332;2024-01-15T02:48:46;18.95;;;7.22;;
65831;SDS011;52593;42.648;23.332;2024-01-15T02:51:11;26.37;;;8.63;;
65831;SDS011;52593;42.648;23.332;2024-01-15T02:53:37;19.47;;;7.90;;
65831;SDS011;52593;42.648;23.332;2024-01-15T02:56:02;18.80;;;6.63;;
65831;SDS011;52593;42.648;23.332;2024-01-15T02:58:28;23.25;;;8.30;;
65831;SDS011;52593;42.648;23.332;2024-01-15T03:00:53;21.23;;;8.53;;
65831;SDS011;52593;42.648;23.332;2024-01-15T03:03:19;20.93;;;7.37;;
65831;SDS011;52593;42.648;23.332;2024-01-15T03:05:44;17.77;;;6.90;;
65831;SDS011;52593;42.648;23.332;2024-01-15T03:08:10;23.90;;;7.78;;
65831;SDS011;52593;42.648;23.332;2024-01-15T03:10:35;18.23;;;7.40;;
65831;SDS011;52593;42.648;23.332;2024-01-15T03:13:01;26.53;;;7.33;;
65831;SDS011;52593;42.648;23.332;2024-01-15T03:15:27;20.73;;;7.05;;
65831;SDS011;52593;42.648;23.332;2024-01-15T03:17:52;17.07;;;6.07;;
65831;SDS011;52593;42.648;23.332;2024-01-15T03:20:17;20.33;;;7.07;;
65831;SDS011;52593;42.648;23.332;2024-01-15T03:22:43;19.15;;;6.57;;
65831;SDS011;52593;42.648;23.332;2024-01-15T03:25:08;15.43;;;6.60;;
65831;SDS011;52593;42.648;23.332;2024-01-15T03:27:34;17.03;;;6.87;;
65831;SDS011;52593;42.648;23.332;2024-01-15T03:30:00;19.45;;;7.20;;
65831;SDS011;52593;42.648;23.332;2024-01-15T03:32:25;20.60;;;6.70;;
65831;SDS011;52593;42.648;23.332;2024-01-15T03:34:50;17.77;;;5.70;;
65831;SDS011;52593;42.648;23.332;2024-01-15T03:37:17;17.52;;;5.68;;
65831;SDS011;52593;42.648;23.332;2024-01-15T03:39:43;23.38;;;6.90;;
65831;SDS011;52593;42.648;23.332;2024-01-15T03:42:08;13.27;;;4.00;;
65831;SDS011;52593;42.648;23.332;2024-01-15T03:44:34;21.00;;;8.93;;
65831;SDS011;52593;42.648;23.332;2024-01-15T03:46:59;18.10;;;7.57;;
65831;SDS011;52593;42.648;23.332;2024-01-15T03:49:25;21.17;;;7.95;;
65831;SDS011;52593;42.648;23.332;2024-01-15T03:51:51;23.08;;;7.45;;
65831;SDS011;52593;42.648;23.332;2024-01-15T03:54:16;30.90;;;10.10;;
65831;SDS011;52593;42.648;23.332;2024-01-15T03:56:42;23.90;;;10.10;;
65831;SDS011;52593;42.648;23.332;2024-01-15T03:59:07;29.37;;;11.23;;
65831;SDS011;52593;42.648;23.332;2024-01-15T04:01:33;31.27;;;12.23;;
65831;SDS011;52593;42.648;23.332;2024-01-15T04:03:58;28.17;;;11.75;;
65831;SDS011;52593;42.648;23.332;2024-01-15T04:06:24;30.00;;;12.00;;
65831;SDS011;52593;42.648;23.332;2024-01-15T04:08:49;37.23;;;11.67;;
65831;SDS011;52593;42.648;23.332;2024-01-15T04:11:15;32.23;;;11.97;;
65831;SDS011;52593;42.648;23.332;2024-01-15T04:13:40;34.70;;;12.20;;
65831;SDS011;52593;42.648;23.332;2024-01-15T04:16:05;33.00;;;12.60;;
65831;SDS011;52593;42.648;23.332;2024-01-15T04:18:31;27.10;;;11.73;;
65831;SDS011;52593;42.648;23.332;2024-01-15T04:20:57;28.17;;;11.98;;
65831;SDS011;52593;42.648;23.332;2024-01-15T04:23:22;29.30;;;10.27;;
65831;SDS011;52593;42.648;23.332;2024-01-15T04:25:47;28.73;;;10.47;;
65831;SDS011;52593;42.648;23.332;2024-01-15T04:28:13;24.43;;;10.30;;
65831;SDS011;52593;42.648;23.332;2024-01-15T04:30:38;31.00;;;10.68;;
65831;SDS011;52593;42.648;23.332;2024-01-15T04:33:04;26.73;;;9.67;;
65831;SDS011;52593;42.648;23.332;2024-01-15T04:35:33;28.27;;;11.23;;
65831;SDS011;52593;42.648;23.332;2024-01-15T04:37:59;31.48;;;11.88;;
65831;SDS011;52593;42.648;23.332;2024-01-15T04:40:25;29.90;;;11.20;;
65831;SDS011;52593;42.648;23.332;2024-01-15T04:42:52;28.05;;;11.32;;
65831;SDS011;52593;42.648;23.332;2024-01-15T04:45:19;25.80;;;10.68;;
65831;SDS011;52593;42.648;23.332;2024-01-15T04:47:44;31.63;;;10.63;;
65831;SDS011;52593;42.648;23.332;2024-01-15T04:50:10;26.45;;;9.77;;
65831;SDS011;52593;42.648;23.332;2024-01-15T04:52:35;24.47;;;10.47;;
65831;SDS011;52593;42.648;23.332;2024-01-15T04:55:01;26.07;;;9.40;;
65831;SDS011;52593;42.648;23.332;2024-01-15T04:57:26;27.60;;;9.00;;
65831;SDS011;52593;42.648;23.332;2024-01-15T04:59:52;24.33;;;10.10;;
65831;SDS011;52593;42.648;23.332;2024-01-15T05:02:17;32.70;;;10.50;;
65831;SDS011;52593;42.648;23.332;2024-01-15T05:04:43;24.30;;;9.50;;
65831;SDS011;52593;42.648;23.332;2024-01-15T05:07:08;29.07;;;9.47;;
65831;SDS011;52593;42.648;23.332;2024-01-15T05:09:34;35.08;;;11.07;;
65831;SDS011;52593;42.648;23.332;2024-01-15T05:11:59;24.23;;;10.23;;
65831;SDS011;52593;42.648;23.332;2024-01-15T05:14:24;38.23;;;14.27;;
65831;SDS011;52593;42.648;23.332;2024-01-15T05:16:50;18.13;;;6.40;;
65831;SDS011;52593;42.648;23.332;2024-01-15T05:19:15;29.38;;;9.88;;
65831;SDS011;52593;42.648;23.332;2024-01-15T05:21:41;25.33;;;10.07;;
65831;SDS011;52593;42.648;23.332;2024-01-15T05:24:07;25.90;;;9.77;;
65831;SDS011;52593;42.648;23.332;2024-01-15T05:26:33;28.33;;;10.63;;
65831;SDS011;52593;42.648;23.332;2024-01-15T05:28:58;25.07;;;9.67;;
65831;SDS011;52593;42.648;23.332;2024-01-15T05:31:24;27.55;;;10.90;;
65831;SDS011;52593;42.648;23.332;2024-01-15T05:33:50;23.60;;;8.40;;
65831;SDS011;52593;42.648;23.332;2024-01-15T05:36:15;12.00;;;5.27;;
65831;SDS011;52593;42.648;23.332;2024-01-15T05:38:41;26.93;;;10.27;;
65831;SDS011;52593;42.648;23.332;2024-01-15T05:41:06;33.73;;;11.30;;
65831;SDS011;52593;42.648;23.332;2024-01-15T05:43:32;29.73;;;11.35;;
65831;SDS011;52593;42.648;23.332;2024-01-15T05:45:57;25.53;;;9.47;;
65831;SDS011;52593;42.648;23.332;2024-01-15T05:48:23;35.03;;;12.67;;
65831;SDS011;52593;42.648;23.332;2024-01-15T05:50:49;26.70;;;9.63;;
65831;SDS011;52593;42.648;23.332;2024-01-15T05:53:14;35.77;;;12.13;;
65831;SDS011;52593;42.648;23.332;2024-01-15T05:55:40;35.20;;;14.73;;
65831;SDS011;52593;42.648;23.332;2024-01-15T05:58:05;48.20;;;15.23;;
65831;SDS011;52593;42.648;23.332;2024-01-15T06:00:31;45.90;;;16.00;;
65831;SDS011;52593;42.648;23.332;2024-01-15T06:02:58;48.50;;;17.67;;
65831;SDS011;52593;42.648;23.332;2024-01-15T06:05:24;75.53;;;31.00;;
65831;SDS011;52593;42.648;23.332;2024-01-15T06:07:49;47.70;;;19.10;;
65831;SDS011;52593;42.648;23.332;2024-01-15T06:10:15;40.80;;;15.70;;
65831;SDS011;52593;42.648;23.332;2024-01-15T06:12:42;38.42;;;16.35;;
65831;SDS011;52593;42.648;23.332;2024-01-15T06:15:08;39.97;;;15.63;;
65831;SDS011;52593;42.648;23.332;2024-01-15T06:17:34;31.92;;;13.65;;
65831;SDS011;52593;42.648;23.332;2024-01-15T06:19:59;44.73;;;16.77;;
65831;SDS011;52593;42.648;23.332;2024-01-15T06:22:25;46.77;;;18.00;;
65831;SDS011;52593;42.648;23.332;2024-01-15T06:24:50;48.70;;;18.15;;
65831;SDS011;52593;42.648;23.332;2024-01-15T06:27:16;38.67;;;15.87;;
65831;SDS011;52593;42.648;23.332;2024-01-15T06:29:44;39.77;;;15.03;;
65831;SDS011;52593;42.648;23.332;2024-01-15T06:32:14;47.97;;;18.25;;
65831;SDS011;52593;42.648;23.332;2024-01-15T06:34:40;47.27;;;16.43;;
65831;SDS011;52593;42.648;23.332;2024-01-15T06:37:05;44.22;;;17.65;;
65831;SDS011;52593;42.648;23.332;2024-01-15T06:39:31;45.20;;;17.33;;
65831;SDS011;52593;42.648;23.332;2024-01-15T06:41:57;49.17;;;17.67;;
65831;SDS011;52593;42.648;23.332;2024-01-15T06:44:22;48.63;;;17.07;;
65831;SDS011;52593;42.648;23.332;2024-01-15T06:46:48;37.40;;;14.75;;
65831;SDS011;52593;42.648;23.332;2024-01-15T06:49:13;40.80;;;16.23;;
65831;SDS011;52593;42.648;23.332;2024-01-15T06:51:39;45.30;;;17.77;;
65831;SDS011;52593;42.648;23.332;2024-01-15T06:54:05;44.57;;;16.73;;
65831;SDS011;52593;42.648;23.332;2024-01-15T06:56:33;46.70;;;17.25;;
65831;SDS011;52593;42.648;23.332;2024-01-15T06:58:59;49.60;;;18.97;;
65831;SDS011;52593;42.648;23.332;2024-01-15T07:01:24;45.30;;;18.73;;
65831;SDS011;52593;42.648;23.332;2024-01-15T07:03:50;47.50;;;20.40;;
65831;SDS011;52593;42.648;23.332;2024-01-15T07:06:15;49.57;;;19.97;;
65831;SDS011;52593;42.648;23.332;2024-01-15T07:08:42;51.28;;;19.77;;
65831;SDS011;52593;42.648;23.332;2024-01-15T07:11:07;54.20;;;21.00;;
65831;SDS011;52593;42.648;23.332;2024-01-15T07:13:34;52.20;;;22.13;;
65831;SDS011;52593;42.648;23.332;2024-01-15T07:16:01;46.07;;;19.17;;
65831;SDS011;52593;42.648;23.332;2024-01-15T07:18:26;63.17;;;21.10;;
65831;SDS011;52593;42.648;23.332;2024-01-15T07:20:52;56.33;;;19.73;;
65831;SDS011;52593;42.648;23.332;2024-01-15T07:23:17;48.93;;;21.17;;
65831;SDS011;52593;42.648;23.332;2024-01-15T07:25:43;64.43;;;22.25;;
65831;SDS011;52593;42.648;23.332;2024-01-15T07:28:09;54.43;;;20.77;;
65831;SDS011;52593;42.648;23.332;2024-01-15T07:30:34;49.95;;;20.35;;
65831;SDS011;52593;42.648;23.332;2024-01-15T07:33:00;58.77;;;21.70;;
65831;SDS011;52593;42.648;23.332;2024-01-15T07:35:26;51.95;;;21.17;;
65831;SDS011;52593;42.648;23.332;2024-01-15T07:37:51;45.27;;;18.57;;
65831;SDS011;52593;42.648;23.332;2024-01-15T07:40:17;51.80;;;19.00;;
65831;SDS011;52593;42.648;23.332;2024-01-15T07:42:42;48.77;;;19.27;;
65831;SDS011;52593;42.648;23.332;2024-01-15T07:45:10;52.33;;;20.37;;
65831;SDS011;52593;42.648;23.332;2024-01-15T07:47:36;56.72;;;17.98;;
65831;SDS011;52593;42.648;23.332;2024-01-15T07:50:02;44.92;;;17.40;;
65831;SDS011;52593;42.648;23.332;2024-01-15T07:52:28;46.37;;;17.97;;
65831;SDS011;52593;42.648;23.332;2024-01-15T07:54:53;62.15;;;19.80;;
65831;SDS011;52593;42.648;23.332;2024-01-15T07:57:20;51.27;;;18.77;;
65831;SDS011;52593;42.648;23.332;2024-01-15T07:59:45;51.70;;;19.13;;
65831;SDS011;52593;42.648;23.332;2024-01-15T08:02:10;61.23;;;21.67;;
65831;SDS011;52593;42.648;23.332;2024-01-15T08:04:36;53.77;;;21.70;;
65831;SDS011;52593;42.648;23.332;2024-01-15T08:07:03;47.10;;;17.67;;
65831;SDS011;52593;42.648;23.332;2024-01-15T08:09:29;39.85;;;15.68;;
65831;SDS011;52593;42.648;23.332;2024-01-15T08:11:54;19.40;;;9.20;;
65831;SDS011;52593;42.648;23.332;2024-01-15T08:14:20;31.30;;;12.50;;
65831;SDS011;52593;42.648;23.332;2024-01-15T08:16:45;33.83;;;12.87;;
65831;SDS011;52593;42.648;23.332;2024-01-15T08:19:11;29.40;;;12.00;;
65831;SDS011;52593;42.648;23.332;2024-01-15T08:21:36;27.73;;;10.33;;
65831;SDS011;52593;42.648;23.332;2024-01-15T08:24:02;30.67;;;11.67;;
65831;SDS011;52593;42.648;23.332;2024-01-15T08:26:28;43.60;;;16.42;;
65831;SDS011;52593;42.648;23.332;2024-01-15T08:28:54;35.47;;;13.63;;
65831;SDS011;52593;42.648;23.332;2024-01-15T08:31:19;20.83;;;9.50;;
65831;SDS011;52593;42.648;23.332;2024-01-15T08:33:45;41.70;;;15.60;;
65831;SDS011;52593;42.648;23.332;2024-01-15T08:36:11;40.80;;;16.27;;
65831;SDS011;52593;42.648;23.332;2024-01-15T08:38:37;51.80;;;17.27;;
65831;SDS011;52593;42.648;23.332;2024-01-15T08:41:02;51.97;;;20.20;;
65831;SDS011;52593;42.648;23.332;2024-01-15T08:43:28;41.53;;;16.02;;
65831;SDS011;52593;42.648;23.332;2024-01-15T08:45:54;54.28;;;19.48;;
65831;SDS011;52593;42.648;23.332;2024-01-15T08:48:20;43.07;;;18.53;;
65831;SDS011;52593;42.648;23.332;2024-01-15T08:50:45;33.17;;;13.63;;
65831;SDS011;52593;42.648;23.332;2024-01-15T08:53:11;44.93;;;16.93;;
65831;SDS011;52593;42.648;23.332;2024-01-15T08:55:37;39.13;;;16.38;;
65831;SDS011;52593;42.648;23.332;2024-01-15T08:58:03;36.10;;;12.83;;
65831;SDS011;52593;42.648;23.332;2024-01-15T09:00:29;36.40;;;13.40;;
65831;SDS011;52593;42.648;23.332;2024-01-15T09:02:55;41.47;;;15.63;;
65831;SDS011;52593;42.648;23.332;2024-01-15T09:05:21;48.50;;;16.13;;
65831;SDS011;52593;42.648;23.332;2024-01-15T09:07:47;43.67;;;15.57;;
65831;SDS011;52593;42.648;23.332;2024-01-15T09:10:13;41.97;;;15.97;;
65831;SDS011;52593;42.648;23.332;2024-01-15T09:12:38;47.17;;;15.57;;
65831;SDS011;52593;42.648;23.332;2024-01-15T09:15:04;35.37;;;14.50;;
65831;SDS011;52593;42.648;23.332;2024-01-15T09:17:30;48.22;;;15.48;;
65831;SDS011;52593;42.648;23.332;2024-01-15T09:19:59;41.67;;;14.30;;
65831;SDS011;52593;42.648;23.332;2024-01-15T09:22:25;34.05;;;13.60;;
65831;SDS011;52593;42.648;23.332;2024-01-15T09:24:50;43.97;;;15.23;;
65831;SDS011;52593;42.648;23.332;2024-01-15T09:27:16;43.73;;;16.20;;
65831;SDS011;52593;42.648;23.332;2024-01-15T09:29:41;36.90;;;16.20;;
65831;SDS011;52593;42.648;23.332;2024-01-15T09:32:09;37.55;;;13.70;;
65831;SDS011;52593;42.648;23.332;2024-01-15T09:34:34;44.00;;;16.67;;
65831;SDS011;52593;42.648;23.332;2024-01-15T09:37:00;45.85;;;16.38;;
65831;SDS011;52593;42.648;23.332;2024-01-15T09:39:26;50.07;;;17.50;;
65831;SDS011;52593;42.648;23.332;2024-01-15T09:41:52;62.25;;;21.02;;
65831;SDS011;52593;42.648;23.332;2024-01-15T09:44:19;55.83;;;19.17;;
65831;SDS011;52593;42.648;23.332;2024-01-15T09:46:45;53.10;;;17.38;;
65831;SDS011;52593;42.648;23.332;2024-01-15T09:49:11;43.70;;;16.65;;
65831;SDS011;52593;42.648;23.332;2024-01-15T09:51:37;54.90;;;17.83;;
65831;SDS011;52593;42.648;23.332;2024-01-15T09:54:04;37.53;;;14.45;;
65831;SDS011;52593;42.648;23.332;2024-01-15T09:56:30;44.45;;;16.33;;
65831;SDS011;52593;42.648;23.332;2024-01-15T09:58:56;31.03;;;14.03;;
65831;SDS011;52593;42.648;23.332;2024-01-15T10:01:22;34.28;;;13.88;;
65831;SDS011;52593;42.648;23.332;2024-01-15T10:03:49;44.13;;;17.88;;
65831;SDS011;52593;42.648;23.332;2024-01-15T10:06:16;42.58;;;13.57;;
65831;SDS011;52593;42.648;23.332;2024-01-15T10:08:47;46.85;;;18.60;;
65831;SDS011;52593;42.648;23.332;2024-01-15T10:11:16;43.50;;;15.90;;
65831;SDS011;52593;42.648;23.332;2024-01-15T10:13:44;59.05;;;22.83;;
65831;SDS011;52593;42.648;23.332;2024-01-15T10:16:10;70.10;;;24.85;;
65831;SDS011;52593;42.648;23.332;2024-01-15T10:18:36;56.53;;;21.13;;
65831;SDS011;52593;42.648;23.332;2024-01-15T10:21:04;61.92;;;23.90;;
65831;SDS011;52593;42.648;23.332;2024-01-15T10:23:34;69.72;;;26.10;;
65831;SDS011;52593;42.648;23.332;2024-01-15T10:26:01;69.47;;;24.35;;
65831;SDS011;52593;42.648;23.332;2024-01-15T10:28:27;67.93;;;26.73;;
65831;SDS011;52593;42.648;23.332;2024-01-15T10:30:55;80.97;;;28.88;;
65831;SDS011;52593;42.648;23.332;2024-01-15T10:33:22;89.75;;;28.42;;
65831;SDS011;52593;42.648;23.332;2024-01-15T10:35:53;72.30;;;28.17;;
65831;SDS011;52593;42.648;23.332;2024-01-15T10:38:20;69.13;;;26.10;;
65831;SDS011;52593;42.648;23.332;2024-01-15T10:40:47;63.80;;;23.80;;
65831;SDS011;52593;42.648;23.332;2024-01-15T10:43:15;61.60;;;23.23;;
65831;SDS011;52593;42.648;23.332;2024-01-15T10:45:43;53.67;;;21.50;;
65831;SDS011;52593;42.648;23.332;2024-01-15T10:48:13;51.95;;;20.38;;
65831;SDS011;52593;42.648;23.332;2024-01-15T10:50:39;46.38;;;20.65;;
65831;SDS011;52593;42.648;23.332;2024-01-15T10:53:05;63.53;;;23.07;;
65831;SDS011;52593;42.648;23.332;2024-01-15T10:55:31;62.92;;;22.83;;
65831;SDS011;52593;42.648;23.332;2024-01-15T10:57:58;48.72;;;21.70;;
65831;SDS011;52593;42.648;23.332;2024-01-15T11:00:25;41.15;;;16.95;;
65831;SDS011;52593;42.648;23.332;2024-01-15T11:02:51;40.00;;;16.00;;
65831;SDS011;52593;42.648;23.332;2024-01-15T11:05:20;34.78;;;14.77;;
65831;SDS011;52593;42.648;23.332;2024-01-15T11:07:47;42.78;;;14.93;;
65831;SDS011;52593;42.648;23.332;2024-01-15T11:13:08;63.63;;;12.60;;
65831;SDS011;52593;42.648;23.332;2024-01-15T11:15:56;31.83;;;13.30;;
65831;SDS011;52593;42.648;23.332;2024-01-15T11:18:39;31.25;;;11.45;;
65831;SDS011;52593;42.648;23.332;2024-01-15T11:23:44;28.57;;;12.10;;
65831;SDS011;52593;42.648;23.332;2024-01-15T11:29:42;35.47;;;15.00;;
65831;SDS011;52593;42.648;23.332;2024-01-15T11:38:06;36.78;;;13.88;;
65831;SDS011;52593;42.648;23.332;2024-01-15T11:43:03;33.03;;;13.85;;
65831;SDS011;52593;42.648;23.332;2024-01-15T11:45:32;38.35;;;15.48;;
65831;SDS011;52593;42.648;23.332;2024-01-15T11:50:47;47.05;;;16.60;;
65831;SDS011;52593;42.648;23.332;2024-01-15T11:53:32;43.95;;;18.27;;
65831;SDS011;52593;42.648;23.332;2024-01-15T11:56:01;32.58;;;12.38;;
65831;SDS011;52593;42.648;23.332;2024-01-15T11:58:28;35.15;;;12.07;;
65831;SDS011;52593;42.648;23.332;2024-01-15T12:00:53;30.03;;;11.40;;
65831;SDS011;52593;42.648;23.332;2024-01-15T12:03:23;33.20;;;12.68;;
65831;SDS011;52593;42.648;23.332;2024-01-15T12:05:49;29.73;;;11.85;;
65831;SDS011;52593;42.648;23.332;2024-01-15T12:08:20;29.83;;;11.27;;
65831;SDS011;52593;42.648;23.332;2024-01-15T12:10:46;22.77;;;8.80;;
65831;SDS011;52593;42.648;23.332;2024-01-15T12:13:15;34.13;;;13.60;;
65831;SDS011;52593;42.648;23.332;2024-01-15T12:15:43;42.33;;;14.10;;
65831;SDS011;52593;42.648;23.332;2024-01-15T12:18:10;39.80;;;14.15;;
65831;SDS011;52593;42.648;23.332;2024-01-15T12:20:37;35.17;;;11.15;;
65831;SDS011;52593;42.648;23.332;2024-01-15T12:23:02;30.57;;;10.60;;
65831;SDS011;52593;42.648;23.332;2024-01-15T12:25:28;34.40;;;13.02;;
65831;SDS011;52593;42.648;23.332;2024-01-15T12:27:55;34.83;;;13.32;;
65831;SDS011;52593;42.648;23.332;2024-01-15T12:30:21;39.00;;;14.27;;
65831;SDS011;52593;42.648;23.332;2024-01-15T12:32:47;38.80;;;14.20;;
65831;SDS011;52593;42.648;23.332;2024-01-15T12:35:13;42.63;;;15.38;;
65831;SDS011;52593;42.648;23.332;2024-01-15T12:37:40;36.63;;;14.18;;
65831;SDS011;52593;42.648;23.332;2024-01-15T12:40:07;39.70;;;15.82;;
65831;SDS011;52593;42.648;23.332;2024-01-15T12:42:34;43.53;;;15.33;;
65831;SDS011;52593;42.648;23.332;2024-01-15T12:45:09;36.05;;;13.93;;
65831;SDS011;52593;42.648;23.332;2024-01-15T12:47:36;33.05;;;13.90;;
65831;SDS011;52593;42.648;23.332;2024-01-15T12:50:05;38.83;;;14.23;;
65831;SDS011;52593;42.648;23.332;2024-01-15T12:52:32;31.52;;;12.68;;
65831;SDS011;52593;42.648;23.332;2024-01-15T12:54:58;26.67;;;11.00;;
65831;SDS011;52593;42.648;23.332;2024-01-15T12:57:23;40.17;;;13.97;;
65831;SDS011;52593;42.648;23.332;2024-01-15T12:59:49;37.17;;;13.23;;
65831;SDS011;52593;42.648;23.332;2024-01-15T13:02:17;39.70;;;13.43;;
65831;SDS011;52593;42.648;23.332;2024-01-15T13:04:43;31.65;;;13.35;;
65831;SDS011;52593;42.648;23.332;2024-01-15T13:07:09;33.90;;;13.30;;
65831;SDS011;52593;42.648;23.332;2024-01-15T13:09:34;35.87;;;13.73;;
65831;SDS011;52593;42.648;23.332;2024-01-15T13:12:01;36.55;;;14.43;;
65831;SDS011;52593;42.648;23.332;2024-01-15T13:14:27;35.72;;;12.95;;
65831;SDS011;52593;42.648;23.332;2024-01-15T13:16:53;39.30;;;14.10;;
65831;SDS011;52593;42.648;23.332;2024-01-15T13:19:19;35.47;;;13.37;;
65831;SDS011;52593;42.648;23.332;2024-01-15T13:21:46;32.33;;;12.30;;
65831;SDS011;52593;42.648;23.332;2024-01-15T13:24:12;22.42;;;10.68;;
65831;SDS011;52593;42.648;23.332;2024-01-15T13:26:39;41.03;;;15.13;;
65831;SDS011;52593;42.648;23.332;2024-01-15T13:29:05;38.00;;;14.68;;
65831;SDS011;52593;42.648;23.332;2024-01-15T13:31:31;32.17;;;12.13;;
65831;SDS011;52593;42.648;23.332;2024-01-15T13:33:57;35.83;;;11.87;;
65831;SDS011;52593;42.648;23.332;2024-01-15T13:36:23;35.90;;;12.27;;
65831;SDS011;52593;42.648;23.332;2024-01-15T13:38:50;37.40;;;13.57;;
65831;SDS011;52593;42.648;23.332;2024-01-15T13:41:16;35.00;;;11.82;;
65831;SDS011;52593;42.648;23.332;2024-01-15T13:43:52;23.47;;;9.97;;
65831;SDS011;52593;42.648;23.332;2024-01-15T13:46:19;37.22;;;12.85;;
65831;SDS011;52593;42.648;23.332;2024-01-15T13:48:46;34.90;;;13.63;;
65831;SDS011;52593;42.648;23.332;2024-01-15T13:51:12;34.90;;;12.93;;
65831;SDS011;52593;42.648;23.332;2024-01-15T13:53:38;30.83;;;13.00;;
65831;SDS011;52593;42.648;23.332;2024-01-15T13:56:04;31.50;;;11.63;;
65831;SDS011;52593;42.648;23.332;2024-01-15T13:58:31;22.77;;;9.27;;
65831;SDS011;52593;42.648;23.332;2024-01-15T14:00:58;30.00;;;10.40;;
65831;SDS011;52593;42.648;23.332;2024-01-15T14:03:24;30.25;;;12.05;;
65831;SDS011;52593;42.648;23.332;2024-01-15T14:05:50;35.50;;;13.05;;
65831;SDS011;52593;42.648;23.332;2024-01-15T14:08:16;29.25;;;11.82;;
65831;SDS011;52593;42.648;23.332;2024-01-15T14:10:42;44.07;;;14.63;;
65831;SDS011;52593;42.648;23.332;2024-01-15T14:13:07;36.87;;;14.47;;
65831;SDS011;52593;42.648;23.332;2024-01-15T14:15:33;32.58;;;13.02;;
65831;SDS011;52593;42.648;23.332;2024-01-15T14:17:59;34.20;;;11.95;;
65831;SDS011;52593;42.648;23.332;2024-01-15T14:20:26;40.83;;;15.27;;
65831;SDS011;52593;42.648;23.332;2024-01-15T14:22:51;39.43;;;13.87;;
65831;SDS011;52593;42.648;23.332;2024-01-15T14:25:17;50.63;;;14.67;;
65831;SDS011;52593;42.648;23.332;2024-01-15T14:27:42;36.08;;;15.57;;